Time;durP1;ratioP1;P1;durP2;ratioP2;P2;SDS_P1;SDS_P2;PMS_P1;PMS_P2;Temp;Humidity;BMP_temperature;BMP_pressure;BME280_temperature;BME280_humidity;BME280_pressure;Samples;Min_cycle;Max_cycle;Signal;HPM_P1;HPM_P2
2021/03/07 00:03:47;;;;;;;12.05;8.10;;;;;;;4.87;67.69;101248.22;2644398;90;21154;-60
2021/03/07 00:07:52;;;;;;;13.53;8.18;;;;;;;4.91;67.88;101260.82;2636613;90;21147;-61
2021/03/07 00:11:56;;;;;;;12.47;8.00;;;;;;;4.93;67.80;101254.57;2636028;90;21135;-60
2021/03/07 00:15:58;;;;;;;8.30;7.00;;;;;;;4.93;67.71;101250.62;2635658;90;21143;-60
2021/03/07 00:20:04;;;;;;;12.47;6.65;;;;;;;4.97;67.76;101258.78;2635739;90;21179;-59
2021/03/07 00:24:08;;;;;;;10.63;7.83;;;;;;;4.98;67.44;101252.59;2635979;90;21192;-60
2021/03/07 00:28:11;;;;;;;6.22;5.62;;;;;;;5.03;67.59;101247.57;2635864;90;21167;-61
2021/03/07 00:32:13;;;;;;;15.72;6.78;;;;;;;5.06;67.50;101240.84;2635695;90;21147;-58
2021/03/07 00:36:16;;;;;;;9.83;6.22;;;;;;;5.05;67.63;101236.05;2635684;90;21171;-59
2021/03/07 00:40:20;;;;;;;10.55;6.45;;;;;;;5.07;67.68;101227.59;2635730;90;21594;-60
2021/03/07 00:44:23;;;;;;;5.90;4.80;;;;;;;5.06;67.72;101219.30;2635790;90;21163;-59
2021/03/07 00:48:25;;;;;;;7.97;5.72;;;;;;;5.06;67.70;101210.06;2635488;90;21147;-61
2021/03/07 00:52:29;;;;;;;10.15;6.85;;;;;;;5.08;67.93;101212.61;2636444;90;21169;-60
2021/03/07 00:56:32;;;;;;;9.40;6.22;;;;;;;5.06;68.07;101211.38;2635462;90;21593;-60
2021/03/07 01:00:35;;;;;;;7.85;7.05;;;;;;;5.07;67.93;101201.67;2635517;90;21179;-61
2021/03/07 01:04:37;;;;;;;10.45;5.40;;;;;;;5.09;68.14;101199.82;2635518;90;21196;-63
2021/03/07 01:08:41;;;;;;;5.87;5.12;;;;;;;5.09;67.87;101190.59;2637708;90;21167;-61
2021/03/07 01:12:47;;;;;;;8.25;5.97;;;;;;;5.08;67.88;101179.64;2637816;90;21191;-62
2021/03/07 01:16:50;;;;;;;;;;;;;;;5.11;68.04;101178.19;2639947;90;21166;-60
2021/03/07 01:20:53;;;;;;;8.83;6.00;;;;;;;5.13;68.10;101171.09;2635348;90;20517;-62
2021/03/07 01:24:56;;;;;;;7.17;5.40;;;;;;;5.18;67.99;101162.95;2629368;90;21193;-59
2021/03/07 01:28:59;;;;;;;8.10;5.65;;;;;;;5.18;67.96;101160.31;2629281;90;21152;-60
2021/03/07 01:33:03;;;;;;;8.48;6.30;;;;;;;5.17;68.04;101156.83;2629540;90;21160;-59
2021/03/07 01:37:05;;;;;;;11.97;8.20;;;;;;;5.17;68.10;101146.73;2629317;90;22250;-60
2021/03/07 01:41:08;;;;;;;7.87;6.40;;;;;;;5.17;68.29;101139.69;2629715;90;21135;-59
2021/03/07 01:45:13;;;;;;;9.73;6.72;;;;;;;5.15;68.35;101137.59;2629307;90;21187;-60
2021/03/07 01:49:17;;;;;;;13.88;7.75;;;;;;;5.14;68.43;101126.16;2629323;90;21601;-59
2021/03/07 01:53:21;;;;;;;13.48;9.55;;;;;;;5.17;68.22;101118.59;2629393;90;21104;-60
2021/03/07 01:57:27;;;;;;;13.62;9.83;;;;;;;5.17;68.16;101115.95;2629243;90;21216;-60
2021/03/07 02:01:30;;;;;;;18.57;9.85;;;;;;;5.18;68.12;101107.11;2629760;90;21144;-60
2021/03/07 02:05:34;;;;;;;15.85;9.85;;;;;;;5.18;68.02;101107.11;2625409;90;21999;-61
2021/03/07 02:09:37;;;;;;;14.47;10.20;;;;;;;5.19;68.18;101103.99;2629083;90;21625;-60
2021/03/07 02:13:43;;;;;;;16.23;11.18;;;;;;;5.18;68.21;101095.23;2629589;90;21135;-60
2021/03/07 02:17:47;;;;;;;14.67;10.63;;;;;;;5.18;68.17;101093.92;2629628;90;21642;-60
2021/03/07 02:21:53;;;;;;;11.88;9.13;;;;;;;5.21;67.85;101091.13;2625319;90;21200;-61
2021/03/07 02:25:56;;;;;;;16.85;9.95;;;;;;;5.23;68.14;101089.28;2629507;90;21179;-59
2021/03/07 02:30:00;;;;;;;11.38;8.88;;;;;;;5.25;68.23;101082.62;2629894;90;21196;-59
2021/03/07 02:34:31;;;;;;;13.38;8.43;;;;;;;5.26;68.04;101065.86;2629623;90;21192;-61
2021/03/07 02:38:38;;;;;;;10.50;7.17;;;;;;;5.25;68.00;101070.27;2629674;90;21148;-60
2021/03/07 02:42:44;;;;;;;10.05;7.60;;;;;;;5.23;68.11;101056.30;2632189;90;21194;-60
2021/03/07 02:46:48;;;;;;;8.28;6.15;;;;;;;5.25;68.06;101050.97;2637835;90;21178;-61
2021/03/07 02:50:52;;;;;;;6.95;5.85;;;;;;;5.25;68.16;101050.48;2637673;90;21201;-59
2021/03/07 02:54:57;;;;;;;7.62;6.30;;;;;;;5.22;68.28;101048.00;2625901;90;21188;-59
2021/03/07 02:59:04;;;;;;;6.47;4.05;;;;;;;5.24;68.33;101038.23;2624965;89;21408;-60
2021/03/07 03:03:10;;;;;;;7.70;5.12;;;;;;;5.21;68.15;101030.47;2637733;90;21625;-60
2021/03/07 03:07:13;;;;;;;7.10;4.55;;;;;;;5.21;68.21;101022.55;2652735;89;21202;-60
2021/03/07 03:11:20;;;;;;;5.65;4.20;;;;;;;5.22;68.24;101024.73;2670303;88;21208;-60
2021/03/07 03:15:25;;;;;;;4.58;3.95;;;;;;;5.26;68.05;101020.54;2687250;88;21168;-61
2021/03/07 03:19:31;;;;;;;7.42;5.17;;;;;;;5.25;67.93;101018.00;2689067;88;21196;-60
2021/03/07 03:23:34;;;;;;;4.70;4.20;;;;;;;5.24;68.00;101017.13;2689412;88;21160;-60
2021/03/07 03:27:37;;;;;;;5.55;4.83;;;;;;;5.20;67.90;100999.73;2689308;88;21188;-60
2021/03/07 03:31:40;;;;;;;7.50;4.17;;;;;;;5.21;67.69;100998.81;2665431;88;21646;-61
2021/03/07 03:35:44;;;;;;;5.70;4.15;;;;;;;5.21;67.40;101001.45;2689095;88;21172;-60
2021/03/07 03:39:48;;;;;;;4.80;4.42;;;;;;;5.23;67.49;100994.31;2689366;88;21152;-62
2021/03/07 03:43:54;;;;;;;5.97;4.45;;;;;;;5.23;67.58;100990.36;2689132;88;21215;-60
2021/03/07 03:48:05;;;;;;;5.55;4.58;;;;;;;5.25;67.46;100992.45;2689181;88;21208;-59
2021/03/07 03:52:09;;;;;;;7.60;4.65;;;;;;;5.27;67.55;100991.91;2689142;88;21200;-61
2021/03/07 03:56:15;;;;;;;6.15;3.83;;;;;;;5.27;67.43;100986.63;2689230;88;21180;-59
2021/03/07 04:00:22;;;;;;;5.20;4.10;;;;;;;5.28;67.61;100979.11;2689283;88;21645;-60
2021/03/07 04:04:28;;;;;;;8.40;4.55;;;;;;;5.30;67.43;100980.37;2689308;88;21188;-62
2021/03/07 04:08:31;;;;;;;5.75;4.85;;;;;;;5.32;67.46;100977.67;2682324;88;21200;-60
2021/03/07 04:12:39;;;;;;;5.95;4.83;;;;;;;5.31;67.46;100979.92;2679829;88;21148;-60
2021/03/07 04:16:42;;;;;;;7.20;3.70;;;;;;;5.32;67.48;100975.03;2680000;88;21184;-60
2021/03/07 04:20:47;;;;;;;6.67;4.33;;;;;;;5.32;67.55;100974.55;2679594;88;21152;-62
2021/03/07 04:24:50;;;;;;;5.10;3.80;;;;;;;5.34;67.44;100966.58;2679824;88;21200;-60
2021/03/07 04:28:53;;;;;;;6.33;5.15;;;;;;;5.31;67.69;100958.33;2679595;88;21228;-60
2021/03/07 04:33:18;;;;;;;6.83;4.25;;;;;;;5.31;67.83;100948.27;2679563;88;21176;-60
2021/03/07 04:37:22;;;;;;;4.58;3.95;;;;;;;5.32;68.02;100946.84;2834082;84;21170;-60
2021/03/07 04:41:24;;;;;;;6.00;5.15;;;;;;;5.32;67.93;100946.84;2833462;84;21168;-59
2021/03/07 04:45:28;;;;;;;6.28;5.47;;;;;;;5.34;68.04;100944.14;2833401;84;21106;-59
2021/03/07 04:49:31;;;;;;;6.55;4.55;;;;;;;5.33;67.89;100939.32;2833087;84;21167;-61
2021/03/07 04:53:34;;;;;;;8.58;5.53;;;;;;;5.36;67.68;100943.60;2833858;84;21142;-60
2021/03/07 04:57:37;;;;;;;7.42;5.78;;;;;;;5.35;67.85;100944.53;2833376;84;21138;-60
2021/03/07 05:01:40;;;;;;;5.28;3.98;;;;;;;5.36;67.95;100930.41;2833173;84;21138;-61
2021/03/07 05:05:43;;;;;;;6.42;4.45;;;;;;;5.34;67.69;100922.56;2833082;84;21142;-61
2021/03/07 05:09:48;;;;;;;5.35;4.60;;;;;;;5.34;67.99;100925.20;2833075;84;21162;-61
2021/03/07 05:13:52;;;;;;;7.22;5.25;;;;;;;5.35;67.82;100920.79;2833482;84;21122;-59
2021/03/07 05:17:55;;;;;;;9.95;5.30;;;;;;;5.37;67.82;100928.16;2833445;84;21146;-61
2021/03/07 05:21:59;;;;;;;7.40;5.75;;;;;;;5.36;67.81;100918.06;2833682;84;21158;-60
2021/03/07 05:26:01;;;;;;;6.97;5.42;;;;;;;5.36;67.47;100909.30;2830845;84;21115;-60
2021/03/07 05:30:06;;;;;;;6.15;4.92;;;;;;;5.37;67.44;100917.61;2831193;84;21468;-62
2021/03/07 05:34:09;;;;;;;7.60;5.85;;;;;;;5.40;67.42;100909.08;2829495;84;21150;-59
2021/03/07 05:38:12;;;;;;;7.83;6.78;;;;;;;5.41;67.22;100900.23;2820559;84;21107;-61
2021/03/07 05:42:15;;;;;;;8.68;5.90;;;;;;;5.45;67.50;100903.55;2820599;84;21134;-62
2021/03/07 05:46:18;;;;;;;8.30;5.10;;;;;;;5.46;67.30;100894.70;2820444;84;21154;-60
2021/03/07 05:50:23;;;;;;;15.43;7.20;;;;;;;5.49;67.39;100891.06;2820779;84;21087;-63
2021/03/07 05:54:27;;;;;;;8.25;6.67;;;;;;;5.48;67.50;100892.83;2820608;84;21154;-60
2021/03/07 05:58:32;;;;;;;10.82;6.35;;;;;;;5.51;67.48;100886.56;2820297;84;21410;-61
2021/03/07 06:02:35;;;;;;;8.55;6.80;;;;;;;5.50;67.59;100885.72;2820450;84;21572;-59
2021/03/07 06:06:38;;;;;;;9.08;6.87;;;;;;;5.50;67.81;100875.62;2820129;84;21142;-61
2021/03/07 06:10:41;;;;;;;11.10;7.28;;;;;;;5.53;67.57;100885.56;2820815;84;21127;-61
2021/03/07 06:14:48;;;;;;;9.03;7.97;;;;;;;5.51;67.51;100876.88;2820654;84;21119;-61
2021/03/07 06:18:51;;;;;;;7.55;6.50;;;;;;;5.55;67.21;100880.19;2818879;84;21095;-60
2021/03/07 06:23:02;;;;;;;11.55;7.15;;;;;;;5.57;67.60;100877.87;2820488;84;21143;-62
2021/03/07 06:27:09;;;;;;;8.88;6.92;;;;;;;5.58;67.57;100869.47;2820425;84;21146;-59
2021/03/07 06:31:32;;;;;;;11.22;7.47;;;;;;;5.59;67.66;100871.17;2820883;84;21467;-61
2021/03/07 06:35:35;;;;;;;8.65;6.87;;;;;;;5.60;67.56;100874.68;2822828;84;21141;-61
2021/03/07 06:39:38;;;;;;;9.90;6.83;;;;;;;5.65;67.47;100873.97;2825201;84;21142;-60
2021/03/07 06:43:41;;;;;;;12.70;6.75;;;;;;;5.64;67.50;100866.98;2826788;84;21169;-60
2021/03/07 06:47:58;;;;;;;10.03;7.17;;;;;;;5.65;67.42;100859.00;2828257;84;21158;-61
2021/03/07 06:52:21;;;;;;;11.97;7.20;;;;;;;5.71;67.10;100853.87;2828377;84;21114;-60
2021/03/07 06:56:50;;;;;;;10.08;6.30;;;;;;;5.74;66.98;100864.72;2828080;84;21106;-61
2021/03/07 07:00:53;;;;;;;10.98;7.05;;;;;;;5.75;66.97;100856.73;2828244;84;21142;-61
2021/03/07 07:04:56;;;;;;;13.72;9.33;;;;;;;5.76;67.29;100850.52;2827857;84;21179;-60
2021/03/07 07:09:01;;;;;;;12.28;7.58;;;;;;;5.79;67.07;100858.27;2828572;84;21123;-61
2021/03/07 07:13:05;;;;;;;7.90;6.85;;;;;;;5.84;66.86;100848.80;2826822;84;21147;-61
2021/03/07 07:17:12;;;;;;;12.10;9.43;;;;;;;5.94;66.64;100852.62;2830831;84;21172;-61
2021/03/07 07:21:18;;;;;;;11.10;9.23;;;;;;;6.01;66.63;100850.55;2830594;84;21141;-60
2021/03/07 07:25:21;;;;;;;11.43;8.27;;;;;;;6.10;66.53;100846.11;2831046;84;21140;-62
2021/03/07 07:29:27;;;;;;;14.93;9.45;;;;;;;6.16;66.08;100842.26;2830613;84;21176;-60
2021/03/07 07:33:51;;;;;;;13.83;9.63;;;;;;;6.20;65.73;100825.33;2830498;84;21169;-61
2021/03/07 07:38:05;;;;;;;17.35;9.48;;;;;;;6.29;65.27;100833.22;2825332;84;21192;-60
2021/03/07 07:42:33;;;;;;;15.88;10.08;;;;;;;6.37;64.95;100823.06;2825297;84;21173;-62
2021/03/07 07:46:58;;;;;;;16.85;10.85;;;;;;;6.40;64.45;100818.09;2824903;84;21203;-61
2021/03/07 07:51:35;;;;;;;19.10;11.65;;;;;;;6.46;64.35;100830.08;2824902;84;21165;-60
2021/03/07 08:00:21;;;;;;;12.53;9.95;;;;;;;6.50;64.51;100809.17;3065569;77;22732;-60
2021/03/07 08:04:34;;;;;;;18.98;12.20;;;;;;;6.55;64.82;100813.72;3014140;78;21157;-60
2021/03/07 08:08:41;;;;;;;14.45;11.30;;;;;;;6.58;63.64;100797.69;3009661;78;21106;-62
2021/03/07 08:12:48;;;;;;;15.15;10.13;;;;;;;6.60;62.79;100805.54;3023754;78;21133;-60
2021/03/07 08:16:50;;;;;;;14.47;9.23;;;;;;;6.57;63.68;100800.78;3019343;78;21125;-61
2021/03/07 08:20:57;;;;;;;17.77;10.75;;;;;;;6.58;63.49;100792.39;3019829;78;21347;-62
2021/03/07 08:25:00;;;;;;;13.88;8.55;;;;;;;6.55;63.58;100798.70;3020268;78;21109;-60
2021/03/07 08:29:03;;;;;;;14.83;8.90;;;;;;;6.64;63.60;100793.36;2951586;80;21153;-61
2021/03/07 08:33:29;;;;;;;14.23;10.55;;;;;;;6.72;62.94;100788.95;2864837;81;21423;-60
2021/03/07 08:37:41;;;;;;;10.68;7.72;;;;;;;6.71;62.17;100790.77;3011674;78;22893;-60
2021/03/07 08:41:52;;;;;;;11.38;8.33;;;;;;;6.65;62.81;100789.77;2968266;80;21128;-59
2021/03/07 08:46:08;;;;;;;13.65;9.60;;;;;;;6.63;62.79;100774.47;2846477;83;21588;-61
2021/03/07 08:50:13;;;;;;;13.03;8.00;;;;;;;6.76;63.16;100781.70;2818823;83;21188;-59
2021/03/07 08:54:22;;;;;;;7.72;6.37;;;;;;;6.81;61.63;100766.41;2819165;83;21189;-60
2021/03/07 08:58:26;;;;;;;9.03;7.20;;;;;;;6.85;62.57;100768.80;2861615;81;21607;-60
2021/03/07 09:02:33;;;;;;;10.30;8.10;;;;;;;6.96;61.85;100761.55;2861466;81;21481;-61
2021/03/07 09:06:40;;;;;;;11.53;7.87;;;;;;;7.00;60.37;100766.20;2905332;81;21596;-61
2021/03/07 09:10:46;;;;;;;7.90;6.78;;;;;;;6.97;60.90;100756.64;2873441;81;21165;-60
2021/03/07 09:14:49;;;;;;;15.18;7.42;;;;;;;7.00;61.90;100760.42;2861415;81;21698;-60
2021/03/07 09:18:52;;;;;;;10.55;7.05;;;;;;;7.03;60.10;100751.92;2861354;81;21161;-63
2021/03/07 09:22:56;;;;;;;10.48;7.78;;;;;;;7.06;60.46;100750.41;2861264;81;21153;-60
2021/03/07 09:27:18;;;;;;;14.28;8.40;;;;;;;6.93;60.58;100747.20;2894332;81;21576;-60
2021/03/07 09:31:33;;;;;;;10.32;8.55;;;;;;;6.82;61.15;100750.47;2892769;81;21561;-60
2021/03/07 09:35:37;;;;;;;10.03;8.23;;;;;;;6.80;61.70;100740.91;2831946;82;21179;-61
2021/03/07 09:39:47;;;;;;;14.05;8.85;;;;;;;6.92;61.26;100748.14;2836614;83;21198;-61
2021/03/07 09:43:51;;;;;;;13.13;9.53;;;;;;;6.93;62.06;100750.30;2812363;83;21595;-60
2021/03/07 09:47:55;;;;;;;13.72;10.48;;;;;;;6.81;61.13;100737.33;2794561;84;21568;-60
2021/03/07 09:52:00;;;;;;;11.75;10.55;;;;;;;6.74;60.82;100739.97;2807851;83;21177;-63
2021/03/07 09:56:05;;;;;;;14.73;10.50;;;;;;;6.56;60.82;100735.64;2801261;83;21157;-60
2021/03/07 10:00:09;;;;;;;17.52;10.58;;;;;;;6.59;61.70;100742.55;2862875;81;21190;-61
2021/03/07 10:04:36;;;;;;;15.00;9.95;;;;;;;6.60;61.40;100738.97;2851641;81;21629;-61
2021/03/07 10:08:41;;;;;;;16.42;11.80;;;;;;;6.73;61.07;100726.37;2863462;81;21144;-61
2021/03/07 10:13:03;;;;;;;10.88;9.70;;;;;;;6.92;61.64;100724.34;2859686;81;21187;-62
2021/03/07 10:17:06;;;;;;;16.70;10.68;;;;;;;6.93;61.09;100716.78;2809626;84;21218;-61
2021/03/07 10:21:09;;;;;;;10.13;9.03;;;;;;;7.07;60.40;100716.40;2816835;83;21169;-62
2021/03/07 10:25:32;;;;;;;11.75;10.10;;;;;;;7.02;60.42;100727.73;2804196;84;21168;-60
2021/03/07 10:29:39;;;;;;;13.93;9.03;;;;;;;7.00;61.58;100724.72;2785111;83;21617;-60
2021/03/07 10:33:43;;;;;;;15.83;8.58;;;;;;;7.12;60.69;100707.73;2776589;84;21195;-60
2021/03/07 10:37:48;;;;;;;18.67;11.60;;;;;;;7.12;60.19;100702.45;2843812;83;21142;-60
2021/03/07 10:42:08;;;;;;;13.32;10.72;;;;;;;7.17;60.45;100699.04;2863857;82;21161;-60
2021/03/07 10:46:31;;;;;;;17.02;9.80;;;;;;;7.18;59.56;100715.30;2850938;82;21165;-60
2021/03/07 10:50:43;;;;;;;15.72;10.32;;;;;;;7.04;59.70;100703.36;2907148;81;21177;-61
2021/03/07 10:54:46;;;;;;;9.48;8.55;;;;;;;6.85;60.44;100716.37;2866220;83;21141;-62
2021/03/07 10:58:49;;;;;;;18.60;10.55;;;;;;;6.78;60.19;100692.11;2910350;81;21177;-61
2021/03/07 11:02:56;;;;;;;11.03;8.28;;;;;;;6.82;60.82;100702.88;2866452;83;21179;-62
2021/03/07 11:06:59;;;;;;;12.10;7.58;;;;;;;6.84;59.98;100690.41;2910467;81;21163;-62
2021/03/07 11:11:04;;;;;;;13.40;8.70;;;;;;;6.92;60.62;100706.28;2866301;83;21639;-62
2021/03/07 11:15:10;;;;;;;12.25;8.48;;;;;;;6.95;60.94;100692.86;2863651;81;21152;-60
2021/03/07 11:19:14;;;;;;;16.77;10.27;;;;;;;6.91;61.10;100688.71;2818157;84;21193;-61
2021/03/07 11:23:18;;;;;;;11.35;7.78;;;;;;;6.79;60.82;100677.08;2860963;83;21403;-61
2021/03/07 11:27:21;;;;;;;7.85;6.72;;;;;;;6.64;61.45;100692.90;2860672;83;21171;-60
2021/03/07 11:31:24;;;;;;;8.95;6.65;;;;;;;6.66;60.97;100685.73;2860412;83;21569;-59
2021/03/07 11:35:28;;;;;;;15.85;8.58;;;;;;;6.58;60.98;100661.55;2860588;83;21179;-60
2021/03/07 11:39:33;;;;;;;11.53;8.68;;;;;;;6.46;61.50;100647.27;2859910;83;21163;-61
2021/03/07 11:43:37;;;;;;;10.28;7.75;;;;;;;6.52;61.34;100660.11;2860248;83;21183;-60
2021/03/07 11:47:39;;;;;;;9.25;7.80;;;;;;;6.65;61.09;100649.66;2860255;82;21134;-61
2021/03/07 11:51:43;;;;;;;10.88;7.35;;;;;;;6.80;61.20;100651.02;2860027;83;21134;-60
2021/03/07 11:55:46;;;;;;;8.85;5.30;;;;;;;6.85;60.57;100638.36;2860133;83;21597;-60
2021/03/07 11:59:49;;;;;;;12.25;7.33;;;;;;;6.64;60.05;100666.47;2877606;81;21627;-61
2021/03/07 12:03:52;;;;;;;11.28;6.60;;;;;;;6.76;60.93;100642.41;2910105;81;21142;-62
2021/03/07 12:07:55;;;;;;;14.73;7.58;;;;;;;6.80;60.42;100643.95;2872118;81;21156;-60
2021/03/07 12:12:00;;;;;;;6.87;6.25;;;;;;;6.79;61.28;100641.38;2859910;83;21648;-62
2021/03/07 12:16:06;;;;;;;8.75;6.37;;;;;;;6.67;60.02;100633.23;2860317;83;21159;-63
2021/03/07 12:20:11;;;;;;;12.50;7.05;;;;;;;6.74;61.13;100640.81;2860557;83;21172;-61
2021/03/07 12:24:16;;;;;;;11.45;8.63;;;;;;;6.75;60.66;100628.81;2860034;83;21100;-61
2021/03/07 12:28:20;;;;;;;9.30;6.58;;;;;;;6.77;62.66;100620.31;2860382;83;21143;-61
2021/03/07 12:32:23;;;;;;;22.05;8.70;;;;;;;6.70;60.38;100611.06;2859950;83;21435;-61
2021/03/07 12:36:26;;;;;;;9.70;7.35;;;;;;;6.68;61.73;100607.20;2860373;83;21503;-62
2021/03/07 12:40:29;;;;;;;12.68;8.50;;;;;;;6.61;61.01;100607.17;2835014;83;21511;-61
2021/03/07 12:44:33;;;;;;;10.82;6.90;;;;;;;6.63;61.24;100605.28;2863575;81;21179;-63
2021/03/07 12:48:36;;;;;;;10.28;7.78;;;;;;;6.63;61.83;100598.67;2896760;81;21625;-62
2021/03/07 12:52:40;;;;;;;12.53;7.83;;;;;;;6.78;60.47;100572.26;2909987;81;21172;-61
2021/03/07 12:56:43;;;;;;;11.40;7.50;;;;;;;6.81;61.20;100584.83;2869888;81;21159;-60
2021/03/07 13:00:47;;;;;;;8.40;7.60;;;;;;;6.83;59.39;100576.78;2867690;83;21185;-60
2021/03/07 13:04:50;;;;;;;8.68;7.33;;;;;;;6.78;60.67;100569.16;2888002;81;21126;-61
2021/03/07 13:08:54;;;;;;;10.35;7.95;;;;;;;6.71;60.73;100585.86;2910032;81;21145;-62
2021/03/07 13:12:58;;;;;;;9.25;7.22;;;;;;;6.71;61.62;100567.36;2909764;81;21125;-60
2021/03/07 13:17:02;;;;;;;10.25;7.53;;;;;;;6.80;60.89;100573.88;2910179;81;21613;-60
2021/03/07 13:21:06;;;;;;;15.35;8.50;;;;;;;6.81;59.96;100576.90;2910030;81;21564;-60
2021/03/07 13:25:11;;;;;;;8.40;7.40;;;;;;;6.81;61.17;100562.35;2910301;81;21117;-61
2021/03/07 13:29:13;;;;;;;11.65;8.83;;;;;;;6.97;61.89;100542.41;2910327;81;21153;-59
2021/03/07 13:33:17;;;;;;;14.50;7.72;;;;;;;7.11;61.08;100547.31;2910225;81;21156;-60
2021/03/07 13:37:20;;;;;;;13.03;10.00;;;;;;;7.12;61.06;100546.36;2910401;81;21157;-59
2021/03/07 13:41:25;;;;;;;13.98;9.40;;;;;;;7.13;60.68;100536.16;2864084;83;21169;-61
2021/03/07 13:45:30;;;;;;;14.23;9.00;;;;;;;7.12;61.45;100542.39;2866427;83;21658;-60
2021/03/07 13:49:33;;;;;;;13.18;10.43;;;;;;;7.16;60.71;100534.63;2910608;81;21153;-59
2021/03/07 13:53:37;;;;;;;18.10;10.95;;;;;;;7.20;61.25;100528.19;2863626;81;21335;-59
2021/03/07 13:57:42;;;;;;;12.07;9.10;;;;;;;7.25;60.54;100528.73;2812815;84;21623;-59
2021/03/07 14:01:44;;;;;;;14.60;11.08;;;;;;;7.17;59.91;100523.09;2818282;84;21129;-60
2021/03/07 14:05:48;;;;;;;15.00;11.38;;;;;;;7.08;59.76;100499.41;2861577;83;21149;-61
2021/03/07 14:09:51;;;;;;;15.23;11.40;;;;;;;7.04;60.09;100515.09;2839216;83;21670;-60
2021/03/07 14:13:54;;;;;;;14.80;11.73;;;;;;;6.86;59.90;100503.87;2877312;81;21141;-59
2021/03/07 14:17:57;;;;;;;16.32;11.57;;;;;;;6.62;60.36;100509.75;2865044;82;21600;-60
2021/03/07 14:22:00;;;;;;;12.80;10.55;;;;;;;6.46;60.89;100511.63;2865309;82;21165;-59
2021/03/07 14:26:04;;;;;;;13.22;9.48;;;;;;;6.42;60.08;100493.81;2865315;82;21090;-58
2021/03/07 14:30:11;;;;;;;12.98;8.28;;;;;;;6.40;61.00;100515.03;2865273;83;21160;-60
2021/03/07 14:34:14;;;;;;;15.90;11.18;;;;;;;6.50;61.38;100506.55;2865039;82;21150;-60
2021/03/07 14:38:18;;;;;;;12.40;8.83;;;;;;;6.43;62.29;100528.05;2867594;82;21145;-59
2021/03/07 14:42:22;;;;;;;9.93;8.93;;;;;;;6.28;59.80;100489.34;2874103;81;21184;-59
2021/03/07 14:46:25;;;;;;;10.65;8.48;;;;;;;6.19;61.01;100502.66;2903407;80;21165;-59
2021/03/07 14:50:28;;;;;;;14.03;8.73;;;;;;;6.09;60.34;100496.22;2868288;83;21157;-60
2021/03/07 14:54:31;;;;;;;11.97;9.18;;;;;;;6.12;61.14;100510.09;2868430;83;21619;-59
2021/03/07 14:58:35;;;;;;;13.22;8.68;;;;;;;6.13;61.08;100485.84;2868301;83;21623;-59
2021/03/07 15:02:38;;;;;;;15.53;9.43;;;;;;;6.02;60.14;100483.84;2868402;83;21590;-60
2021/03/07 15:06:42;;;;;;;10.15;8.48;;;;;;;6.03;61.40;100492.14;2868441;83;21153;-59
2021/03/07 15:10:46;;;;;;;14.80;9.68;;;;;;;6.02;61.85;100490.45;2868514;83;21180;-59
2021/03/07 15:14:50;;;;;;;9.75;8.78;;;;;;;5.98;60.62;100480.98;2868396;82;21157;-59
2021/03/07 15:18:53;;;;;;;13.43;9.78;;;;;;;6.00;62.46;100471.17;2868835;83;21169;-59
2021/03/07 15:22:56;;;;;;;11.78;8.03;;;;;;;6.02;62.69;100468.00;2868505;83;21177;-60
2021/03/07 15:26:59;;;;;;;22.35;15.30;;;;;;;6.01;61.12;100458.38;2868578;83;21474;-60
2021/03/07 15:31:03;;;;;;;18.07;10.48;;;;;;;5.96;61.32;100461.74;2868220;83;21620;-59
2021/03/07 15:35:08;;;;;;;14.98;10.72;;;;;;;5.90;61.97;100459.48;2868181;83;21090;-60
2021/03/07 15:39:11;;;;;;;14.63;10.23;;;;;;;5.87;62.70;100445.98;2872132;82;21156;-59
2021/03/07 15:43:14;;;;;;;9.98;9.08;;;;;;;5.92;62.21;100437.79;2896809;82;21157;-60
2021/03/07 15:47:16;;;;;;;17.65;10.40;;;;;;;5.92;62.45;100435.15;2849073;83;21148;-59
2021/03/07 15:51:20;;;;;;;7.65;6.53;;;;;;;5.90;62.74;100422.52;2848953;83;21159;-59
2021/03/07 15:55:23;;;;;;;17.67;9.18;;;;;;;5.85;61.70;100413.05;2849175;83;21180;-59
2021/03/07 15:59:50;;;;;;;14.63;9.40;;;;;;;5.81;61.25;100422.11;2849898;83;21108;-60
2021/03/07 16:03:53;;;;;;;12.45;11.15;;;;;;;5.78;62.81;100438.13;2739692;86;21160;-61
2021/03/07 16:07:56;;;;;;;15.88;12.28;;;;;;;5.71;62.87;100438.13;2739775;86;21505;-59
2021/03/07 16:12:02;;;;;;;11.08;8.65;;;;;;;5.69;62.71;100434.70;2739631;86;21494;-61
2021/03/07 16:16:08;;;;;;;14.37;10.13;;;;;;;5.62;63.07;100437.33;2739932;86;21184;-60
2021/03/07 16:20:12;;;;;;;11.70;7.95;;;;;;;5.63;63.15;100440.35;2739764;86;21219;-61
2021/03/07 16:24:15;;;;;;;15.00;8.63;;;;;;;5.57;63.71;100441.09;2739842;86;21204;-60
2021/03/07 16:28:19;;;;;;;16.75;10.40;;;;;;;5.55;63.59;100438.16;2739687;86;21757;-61
2021/03/07 16:32:21;;;;;;;12.33;7.12;;;;;;;5.47;62.68;100435.96;2739666;86;21180;-61
2021/03/07 16:36:25;;;;;;;12.07;7.85;;;;;;;5.34;62.19;100423.13;2739866;86;21223;-60
2021/03/07 16:40:28;;;;;;;10.32;8.13;;;;;;;5.27;61.54;100420.82;2739773;86;21120;-59
2021/03/07 16:44:31;;;;;;;9.95;6.95;;;;;;;5.23;63.20;100418.47;2738929;85;21213;-59
2021/03/07 16:48:34;;;;;;;9.13;6.40;;;;;;;5.19;63.42;100426.15;2737355;87;21486;-60
2021/03/07 16:52:38;;;;;;;12.45;7.72;;;;;;;5.08;64.14;100409.17;2737074;87;21316;-60
2021/03/07 16:56:42;;;;;;;9.43;6.50;;;;;;;5.02;64.35;100409.53;2737268;87;21659;-61
2021/03/07 17:00:45;;;;;;;9.60;7.10;;;;;;;4.92;64.21;100413.61;2737481;87;21498;-58
2021/03/07 17:04:48;;;;;;;13.20;8.68;;;;;;;4.88;64.40;100414.23;2737409;87;21196;-59
2021/03/07 17:08:51;;;;;;;11.78;9.83;;;;;;;4.83;64.96;100422.42;2737596;87;21177;-60
2021/03/07 17:12:55;;;;;;;13.20;9.28;;;;;;;4.80;65.01;100419.09;2737564;86;21198;-59
2021/03/07 17:16:58;;;;;;;10.20;7.95;;;;;;;4.81;64.34;100419.48;2737442;87;21201;-59
2021/03/07 17:21:01;;;;;;;11.57;8.83;;;;;;;4.71;63.57;100431.83;2747161;86;21627;-60
2021/03/07 17:25:08;;;;;;;12.70;9.75;;;;;;;4.84;64.18;100433.35;2766914;86;21155;-59
2021/03/07 17:29:12;;;;;;;12.63;9.30;;;;;;;4.89;64.73;100446.73;2768111;86;21139;-61
2021/03/07 17:33:16;;;;;;;17.07;12.93;;;;;;;4.89;64.90;100438.34;2768382;86;21570;-61
2021/03/07 17:37:19;;;;;;;17.67;11.63;;;;;;;4.91;64.87;100448.33;2767837;85;21653;-59
2021/03/07 17:41:22;;;;;;;14.13;10.23;;;;;;;4.87;64.19;100456.03;2747198;85;21580;-58
2021/03/07 17:45:27;;;;;;;15.32;10.72;;;;;;;4.92;64.03;100451.38;2749260;85;21647;-60
2021/03/07 17:49:30;;;;;;;17.90;12.80;;;;;;;4.90;63.78;100465.08;2754083;85;21133;-60
2021/03/07 17:53:33;;;;;;;32.13;19.10;;;;;;;4.92;64.30;100457.97;2737254;87;21196;-61
2021/03/07 17:57:37;;;;;;;29.45;15.90;;;;;;;4.93;63.87;100464.94;2724649;87;21184;-60
2021/03/07 18:01:41;;;;;;;23.65;14.55;;;;;;;4.91;63.41;100461.52;2717870;87;21214;-59
2021/03/07 18:05:44;;;;;;;28.45;16.75;;;;;;;4.97;63.86;100462.52;2696917;87;21173;-61
2021/03/07 18:09:48;;;;;;;48.45;29.18;;;;;;;4.95;63.85;100457.80;2696967;88;21194;-61
2021/03/07 18:13:52;;;;;;;30.65;20.70;;;;;;;4.96;63.43;100464.77;2718288;87;21182;-60
2021/03/07 18:17:55;;;;;;;23.20;18.42;;;;;;;4.98;63.81;100457.62;2726826;87;21184;-60
2021/03/07 18:22:00;;;;;;;27.20;18.60;;;;;;;5.03;63.84;100462.64;2726282;87;21178;-61
2021/03/07 18:26:05;;;;;;;22.02;16.32;;;;;;;5.04;63.83;100462.16;2718263;87;21743;-60
2021/03/07 18:30:10;;;;;;;25.62;16.45;;;;;;;5.02;63.48;100462.72;2726386;86;21173;-59
2021/03/07 18:34:13;;;;;;;19.27;12.90;;;;;;;4.99;63.50;100463.72;2726877;87;21164;-60
2021/03/07 18:38:18;;;;;;;20.08;12.40;;;;;;;4.97;63.80;100456.38;2726773;87;21213;-59
2021/03/07 18:42:22;;;;;;;17.37;11.85;;;;;;;4.93;64.21;100454.39;2716616;87;21182;-61
2021/03/07 18:46:25;;;;;;;14.63;10.53;;;;;;;4.91;64.37;100457.55;2696497;87;21608;-59
2021/03/07 18:50:29;;;;;;;18.20;12.65;;;;;;;4.84;64.18;100449.62;2697039;87;21171;-61
2021/03/07 18:54:34;;;;;;;23.60;16.35;;;;;;;4.79;64.85;100451.66;2696536;88;21162;-61
2021/03/07 18:58:37;;;;;;;28.38;16.70;;;;;;;4.70;64.27;100456.97;2696512;87;22367;-58
2021/03/07 19:02:43;;;;;;;32.03;17.92;;;;;;;4.64;63.40;100450.24;2707365;87;21185;-61
2021/03/07 19:06:48;;;;;;;36.23;20.70;;;;;;;4.67;63.42;100446.12;2714990;87;21185;-59
2021/03/07 19:10:51;;;;;;;27.65;20.25;;;;;;;4.61;63.64;100440.33;2717565;87;21498;-59